»·PEaware :: SKY33 KFHR-KORS

SKY33 :: KFHR-KORS

FLIGHT INFORMATION

Flight Status: Arrived
Operator:
Sky High Charters
More flights by this operator :: More flights under this callsign
Pilot: Anonymous 29304 (29304)
Aircraft: BEECH AIRCRAFT BARON
(BE58)
More flights by this aircraft type
Origin: KFHR Friday Harbor
United States
Destination: KORS Orcas Island
United States
More flights between these airports :: More routes between these airports
Route: FHR CVV
File this flight plan on PilotEdge
Remarks: KFHR OBP
Altitude:
(Current/Filed)
5,000ft
Speed:
(Current/Filed)
150kts
Departed: 11-Nov-20 06:49 PM
Arrived: 11-Nov-20 07:19 PM
Distance/Time
Traveled:
12nm/0:30
Distance/Time
To Go:
Arrived

Flight Plot

Page will automatically refresh every two minutes.

Flight plan parsing failed; only flown route is shown


Map Options




Map Legend


Flown Route
Filed Route
Departure Airport
Arrival Airport
Navaid (VOR, NDB)
Fix

Horizontal Profiles

Position Reports

Time Latitude Longitude Heading Altitude Ground
Speed
11-Nov-20 18:33 48.524810 -123.025978 170 114ft 0kts
11-Nov-20 18:34 48.524810 -123.025978 170 114ft 0kts
11-Nov-20 18:35 48.524810 -123.025978 170 114ft 0kts
11-Nov-20 18:36 48.524810 -123.025978 170 114ft 0kts
11-Nov-20 18:37 48.524810 -123.025978 170 114ft 0kts
11-Nov-20 18:38 48.524810 -123.025978 170 114ft 0kts
11-Nov-20 18:39 48.524810 -123.025978 170 114ft 0kts
11-Nov-20 18:40 48.524810 -123.025978 170 114ft 0kts
11-Nov-20 18:41 48.524719 -123.025875 116 114ft 5kts
11-Nov-20 18:42 48.526184 -123.025279 357 115ft 6kts
11-Nov-20 18:43 48.526592 -123.025331 109 117ft 0kts
11-Nov-20 18:44 48.526592 -123.025331 109 117ft 0kts
11-Nov-20 18:45 48.526592 -123.025331 109 117ft 0kts
11-Nov-20 18:46 48.526592 -123.025331 109 117ft 0kts
11-Nov-20 18:47 48.526169 -123.024685 175 112ft 0kts
11-Nov-20 18:48 48.502539 -123.025031 183 911ft 128kts
11-Nov-20 18:49 48.495925 -122.997432 2 2416ft 132kts
11-Nov-20 18:50 48.498545 -122.962816 168 3843ft 137kts
11-Nov-20 18:51 48.464876 -122.938644 149 4963ft 149kts
11-Nov-20 18:52 48.424711 -122.916378 160 5468ft 153kts
11-Nov-20 18:53 48.386242 -122.883498 164 5262ft 162kts
11-Nov-20 18:54 48.345048 -122.863653 163 5191ft 147kts
11-Nov-20 18:55 48.306704 -122.849725 163 5194ft 141kts
11-Nov-20 18:56 48.268835 -122.836254 163 5071ft 138kts
11-Nov-20 18:57 48.232842 -122.823622 163 5102ft 130kts
11-Nov-20 18:58 48.197064 -122.811081 163 5097ft 132kts
11-Nov-20 18:59 48.171217 -122.786424 69 5106ft 106kts
11-Nov-20 19:00 48.193108 -122.760325 28 5091ft 99kts
11-Nov-20 19:01 48.217367 -122.740887 28 5124ft 102kts
11-Nov-20 19:02 48.244938 -122.733928 354 5083ft 107kts
11-Nov-20 19:03 48.274615 -122.740783 346 5113ft 110kts
11-Nov-20 19:04 48.304464 -122.751273 351 4605ft 109kts
11-Nov-20 19:05 48.334304 -122.762473 347 4184ft 111kts
11-Nov-20 19:06 48.364226 -122.774962 347 3876ft 112kts
11-Nov-20 19:07 48.395083 -122.787838 346 3777ft 119kts
11-Nov-20 19:08 48.427935 -122.801373 346 3992ft 124kts
11-Nov-20 19:09 48.460782 -122.815042 345 3940ft 118kts
11-Nov-20 19:10 48.491609 -122.828015 344 3681ft 113kts
11-Nov-20 19:11 48.521331 -122.840505 344 3430ft 109kts
11-Nov-20 19:12 48.553139 -122.853904 344 2976ft 142kts
11-Nov-20 19:13 48.588703 -122.868639 347 2330ft 117kts
11-Nov-20 19:14 48.617779 -122.878756 343 2060ft 114kts
11-Nov-20 19:15 48.646987 -122.889895 346 1671ft 106kts
11-Nov-20 19:16 48.675085 -122.901571 346 1030ft 99kts
11-Nov-20 19:17 48.699324 -122.910669 0 224ft 88kts
11-Nov-20 19:18 48.712068 -122.910188 102 19ft 11kts
11-Nov-20 19:19 48.709227 -122.910000 179 25ft 10kts
11-Nov-20 19:20 48.706598 -122.909586 149 34ft 6kts
11-Nov-20 19:21 48.706217 -122.909567 177 34ft 0kts
11-Nov-20 19:22 48.706217 -122.909567 177 34ft 0kts
11-Nov-20 19:23 48.706217 -122.909567 177 34ft 0kts
11-Nov-20 19:24 48.706217 -122.909567 177 34ft 0kts
11-Nov-20 19:25 48.706217 -122.909567 177 34ft 0kts
11-Nov-20 19:26 48.706217 -122.909567 177 34ft 0kts
11-Nov-20 19:27 48.706217 -122.909567 177 34ft 0kts

Navigation Log

Ident Type
Flight plan parsing failed, navigation log unavailable